createdAt,value
2022-08-26T00:45:18.457Z,18.92
2022-08-26T00:47:57.586Z,20.10
2022-08-26T00:50:31.247Z,24.77
2022-08-26T00:53:02.077Z,21.85
2022-08-26T00:55:41.341Z,20.63
2022-08-26T00:58:09.078Z,21.08
2022-08-26T01:00:36.516Z,18.48
2022-08-26T01:03:05.226Z,22.42
2022-08-26T01:05:32.959Z,21.30
2022-08-26T01:08:00.567Z,20.77
2022-08-26T01:10:31.771Z,21.25
2022-08-26T01:13:06.197Z,22.02
2022-08-26T01:15:37.450Z,21.73
2022-08-26T01:20:41.629Z,22.13
2022-08-26T01:23:11.224Z,22.10
2022-08-26T01:25:43.091Z,21.83
2022-08-26T01:28:16.857Z,21.33
2022-08-26T01:30:46.821Z,19.27
2022-08-26T01:33:19.344Z,25.48
2022-08-26T01:35:47.218Z,21.10
2022-08-26T01:38:16.926Z,22.15
2022-08-26T01:40:45.883Z,22.52
2022-08-26T01:43:19.059Z,21.67
2022-08-26T01:45:49.419Z,19.88
2022-08-26T01:48:20.512Z,21.20
2022-08-26T01:50:48.420Z,22.20
2022-08-26T01:53:18.642Z,24.15
2022-08-26T01:55:54.722Z,23.30
2022-08-26T01:58:28.298Z,22.70
2022-08-26T02:00:56.065Z,22.17
2022-08-26T02:03:24.559Z,21.52
2022-08-26T02:05:57.370Z,21.45
2022-08-26T02:08:32.102Z,20.55
2022-08-26T02:11:00.267Z,24.00
2022-08-26T02:13:31.607Z,24.17
2022-08-26T02:16:03.826Z,24.33
2022-08-26T02:18:35.464Z,25.05
2022-08-26T02:21:04.218Z,23.20
2022-08-26T02:23:34.355Z,23.42
2022-08-26T02:26:10.607Z,23.38
2022-08-26T02:28:49.114Z,21.77
2022-08-26T02:31:16.951Z,21.92
2022-08-26T02:33:44.501Z,24.05
2022-08-26T02:36:13.509Z,22.48
2022-08-26T02:38:43.048Z,19.85
2022-08-26T02:41:11.197Z,23.95
2022-08-26T02:43:38.593Z,21.48
2022-08-26T02:46:06.205Z,21.65
2022-08-26T02:48:33.742Z,27.10
2022-08-26T02:51:02.503Z,22.55
2022-08-26T02:53:31.894Z,28.35
2022-08-26T02:56:01.405Z,30.17
2022-08-26T02:58:28.897Z,23.90
2022-08-26T03:00:56.408Z,23.50
2022-08-26T03:03:23.889Z,23.23
2022-08-26T03:05:52.702Z,21.83
2022-08-26T03:08:20.339Z,23.10
2022-08-26T03:10:48.252Z,27.85
2022-08-26T03:13:17.137Z,22.27
2022-08-26T03:15:45.847Z,22.90
2022-08-26T03:18:13.699Z,23.58
2022-08-26T03:20:41.797Z,21.38
2022-08-26T03:23:09.287Z,25.05
2022-08-26T03:25:36.764Z,25.40
2022-08-26T03:28:04.330Z,26.35
2022-08-26T03:30:45.137Z,21.88
2022-08-26T03:33:14.624Z,25.48
2022-08-26T03:35:44.339Z,25.17
2022-08-26T03:38:12.056Z,26.70
2022-08-26T03:40:40.153Z,23.40
2022-08-26T03:43:09.801Z,24.35
2022-08-26T03:45:37.984Z,28.15
2022-08-26T03:48:05.650Z,26.13
2022-08-26T03:50:34.147Z,26.75
2022-08-26T03:53:04.401Z,26.38
2022-08-26T03:55:34.834Z,28.08
2022-08-26T03:58:02.611Z,27.10
2022-08-26T04:00:30.343Z,27.38
2022-08-26T04:02:57.985Z,23.67
2022-08-26T04:05:25.719Z,29.20
2022-08-26T04:07:53.183Z,27.83
2022-08-26T04:10:28.664Z,26.85
2022-08-26T04:12:59.289Z,25.05
2022-08-26T04:15:28.169Z,24.58
2022-08-26T04:17:55.797Z,24.67
2022-08-26T04:20:23.550Z,23.13
2022-08-26T04:22:51.292Z,28.17
2022-08-26T04:25:18.768Z,23.65
2022-08-26T04:27:48.485Z,28.70
2022-08-26T04:30:16.730Z,24.45
2022-08-26T04:32:44.351Z,26.95
2022-08-26T04:35:11.745Z,23.67
2022-08-26T04:37:39.254Z,23.33
2022-08-26T04:40:11.332Z,24.13
2022-08-26T04:42:38.787Z,23.85
2022-08-26T04:45:10.282Z,24.88
2022-08-26T04:47:38.349Z,23.80
2022-08-26T04:50:07.476Z,20.08
2022-08-26T04:52:36.574Z,23.13
2022-08-26T04:55:05.965Z,21.13
2022-08-26T04:57:34.165Z,21.55
2022-08-26T05:00:01.744Z,20.45
2022-08-26T05:02:31.476Z,21.42
2022-08-26T05:04:58.974Z,18.08
2022-08-26T05:07:26.809Z,20.88
2022-08-26T05:09:54.362Z,18.33
2022-08-26T05:12:23.265Z,21.42
2022-08-26T05:14:50.639Z,24.42
2022-08-26T05:17:19.592Z,21.77
2022-08-26T05:19:47.487Z,21.85
2022-08-26T05:22:14.977Z,20.65
2022-08-26T05:24:43.228Z,20.98
2022-08-26T05:27:13.855Z,19.80
2022-08-26T05:29:48.128Z,24.10
2022-08-26T05:32:25.014Z,19.50
2022-08-26T05:34:57.042Z,21.23
2022-08-26T05:37:26.925Z,26.33
2022-08-26T05:39:54.497Z,26.00
2022-08-26T05:42:22.056Z,25.85
2022-08-26T05:44:55.909Z,23.85
2022-08-26T05:47:25.404Z,25.45
2022-08-26T05:49:52.853Z,21.65
2022-08-26T05:52:20.522Z,22.63
2022-08-26T05:54:47.950Z,22.55
2022-08-26T05:57:15.882Z,23.88
2022-08-26T05:59:43.406Z,27.63
2022-08-26T06:02:10.799Z,33.28
2022-08-26T06:04:39.697Z,34.22
2022-08-26T06:07:07.437Z,38.58
2022-08-26T06:09:39.258Z,25.98
2022-08-26T06:12:06.890Z,27.95
2022-08-26T06:14:35.562Z,28.25
2022-08-26T06:17:03.090Z,28.77
2022-08-26T06:19:33.043Z,22.00
2022-08-26T06:22:23.297Z,27.20
2022-08-26T06:25:10.175Z,34.05
2022-08-26T06:27:37.725Z,30.27
2022-08-26T06:30:06.042Z,35.80
2022-08-26T06:32:33.931Z,26.58
2022-08-26T06:35:01.650Z,26.30
2022-08-26T06:37:29.498Z,25.30
2022-08-26T06:39:57.079Z,20.67
2022-08-26T06:42:25.144Z,27.58
2022-08-26T06:44:52.661Z,25.02
2022-08-26T06:47:20.497Z,22.92
2022-08-26T06:49:48.344Z,24.60
2022-08-26T06:52:22.962Z,23.95
2022-08-26T06:54:52.206Z,22.88
2022-08-26T06:57:20.580Z,20.48
2022-08-26T06:59:48.767Z,23.60
2022-08-26T07:02:19.059Z,22.63
2022-08-26T07:04:48.196Z,26.63
2022-08-26T07:07:18.807Z,23.83
2022-08-26T07:09:49.537Z,25.42
2022-08-26T07:12:20.882Z,25.58
2022-08-26T07:14:48.509Z,28.85
2022-08-26T07:17:16.556Z,26.00
2022-08-26T07:19:44.089Z,28.75
2022-08-26T07:22:11.970Z,29.70
2022-08-26T07:24:42.959Z,28.17
2022-08-26T07:27:14.824Z,26.75
2022-08-26T07:29:43.685Z,27.60
2022-08-26T07:32:13.414Z,24.00
2022-08-26T07:34:42.050Z,24.77
2022-08-26T07:37:09.734Z,26.40
2022-08-26T07:39:37.756Z,20.10
2022-08-26T07:42:10.208Z,21.05
2022-08-26T07:44:38.289Z,25.05
2022-08-26T07:47:10.426Z,26.00
2022-08-26T07:49:55.268Z,25.63
2022-08-26T07:52:26.565Z,25.13
2022-08-26T07:55:00.625Z,26.45
2022-08-26T07:57:29.207Z,22.00
2022-08-26T07:59:57.150Z,26.45
2022-08-26T08:02:26.168Z,21.83
2022-08-26T08:04:54.781Z,19.70
2022-08-26T08:07:38.600Z,17.35
2022-08-26T08:10:13.625Z,18.52
2022-08-26T08:12:41.900Z,17.20
2022-08-26T08:15:13.269Z,14.73
2022-08-26T08:17:43.764Z,10.65
2022-08-26T08:20:13.255Z,17.20
2022-08-26T08:22:42.595Z,14.13
2022-08-26T08:25:11.548Z,12.85
2022-08-26T08:27:40.200Z,11.48
2022-08-26T08:30:09.294Z,13.60
2022-08-26T08:32:43.604Z,13.50
2022-08-26T08:35:15.085Z,13.05
2022-08-26T08:37:44.362Z,15.35
2022-08-26T08:40:18.341Z,16.38
2022-08-26T08:45:36.637Z,12.82
2022-08-26T08:48:20.259Z,12.32
2022-08-26T08:51:04.833Z,9.10
2022-08-26T08:53:39.274Z,10.93
2022-08-26T08:56:28.293Z,13.63
2022-08-26T08:58:59.326Z,11.05
2022-08-26T09:01:52.425Z,13.43
2022-08-26T09:05:00.808Z,10.80
2022-08-26T09:07:45.046Z,10.55
2022-08-26T09:10:26.229Z,12.13
2022-08-26T09:12:53.677Z,16.95
2022-08-26T09:15:30.723Z,11.90
2022-08-26T09:18:08.590Z,9.45
2022-08-26T09:21:04.153Z,10.65
2022-08-26T09:23:34.138Z,8.98
2022-08-26T09:26:13.558Z,11.15
2022-08-26T09:28:46.125Z,8.60
2022-08-26T09:31:21.614Z,11.27
2022-08-26T09:34:22.997Z,9.43
2022-08-26T09:37:00.395Z,7.63
2022-08-26T09:39:37.741Z,10.90
2022-08-26T09:42:07.356Z,8.75
2022-08-26T09:44:50.924Z,6.90
2022-08-26T09:47:25.142Z,11.18
2022-08-26T09:50:12.561Z,10.43
2022-08-26T09:52:42.658Z,7.40
2022-08-26T09:55:21.379Z,8.27
2022-08-26T09:57:52.183Z,7.68
2022-08-26T10:00:33.101Z,7.30
2022-08-26T10:03:03.853Z,9.82
2022-08-26T10:05:43.668Z,7.40
2022-08-26T10:08:34.516Z,8.73
2022-08-26T10:11:07.189Z,7.60
2022-08-26T10:13:43.121Z,8.45
2022-08-26T10:16:22.214Z,4.90
2022-08-26T10:19:00.499Z,11.02
2022-08-26T10:21:35.353Z,8.65
2022-08-26T10:24:04.361Z,8.93
2022-08-26T10:26:57.728Z,9.90
2022-08-26T10:29:50.686Z,8.68
2022-08-26T10:32:27.934Z,6.93
2022-08-26T10:34:55.393Z,10.63
2022-08-26T10:37:32.976Z,7.95
2022-08-26T10:40:13.089Z,9.00
2022-08-26T10:42:46.184Z,11.60
2022-08-26T10:45:17.626Z,8.95
2022-08-26T10:47:59.920Z,8.23
2022-08-26T10:50:47.435Z,10.70
2022-08-26T10:53:25.383Z,6.70
2022-08-26T10:56:26.629Z,10.80
2022-08-26T10:58:57.046Z,8.73
2022-08-26T11:02:05.550Z,11.00
2022-08-26T11:04:51.273Z,9.27
2022-08-26T11:07:47.557Z,6.93
2022-08-26T11:10:39.449Z,9.73
2022-08-26T11:13:11.377Z,9.25
2022-08-26T11:15:42.883Z,7.72
2022-08-26T11:18:43.539Z,9.90
2022-08-26T11:22:02.526Z,6.10
2022-08-26T11:25:00.997Z,10.15
2022-08-26T11:27:35.714Z,9.65
2022-08-26T11:30:09.011Z,9.52
2022-08-26T11:32:38.895Z,8.40
2022-08-26T11:35:28.704Z,7.28
2022-08-26T11:38:17.062Z,9.83
2022-08-26T11:41:04.824Z,8.20
2022-08-26T11:43:33.563Z,6.10
2022-08-26T11:46:05.312Z,8.10
2022-08-26T11:48:44.084Z,8.10
2022-08-26T11:51:23.808Z,5.15
2022-08-26T11:53:51.422Z,6.47
2022-08-26T11:56:33.045Z,5.97
2022-08-26T11:59:07.786Z,6.13
2022-08-26T12:01:39.865Z,9.02
2022-08-26T12:04:10.631Z,7.07
2022-08-26T12:06:45.782Z,5.78
2022-08-26T12:09:32.905Z,4.80
2022-08-26T12:12:14.048Z,7.03
2022-08-26T12:14:42.410Z,5.95
2022-08-26T12:17:25.760Z,6.15
2022-08-26T12:19:53.212Z,8.88
2022-08-26T12:22:28.037Z,10.00
2022-08-26T12:25:05.825Z,9.30
2022-08-26T12:27:42.738Z,4.90
2022-08-26T12:30:23.189Z,5.97
2022-08-26T12:33:22.269Z,7.15
2022-08-26T12:35:54.363Z,3.70
2022-08-26T12:38:25.486Z,5.22
2022-08-26T12:40:53.991Z,7.82
2022-08-26T12:43:56.948Z,7.38
2022-08-26T12:46:28.300Z,6.43
2022-08-26T12:49:01.941Z,5.63
2022-08-26T12:51:32.434Z,7.78
2022-08-26T12:56:30.926Z,6.38
2022-08-26T12:59:02.655Z,5.20
2022-08-26T13:01:38.190Z,8.25
2022-08-26T13:04:06.943Z,6.32
2022-08-26T13:06:35.024Z,5.47
2022-08-26T13:09:29.693Z,6.43
2022-08-26T13:11:58.620Z,4.35
2022-08-26T13:14:26.154Z,5.68
2022-08-26T13:16:53.941Z,6.30
2022-08-26T13:19:24.039Z,4.07
2022-08-26T13:21:59.870Z,3.90
2022-08-26T13:24:36.878Z,4.88
2022-08-26T13:27:07.001Z,4.50
2022-08-26T13:32:03.394Z,7.60
2022-08-26T13:34:31.847Z,6.20
2022-08-26T13:36:59.681Z,5.80
2022-08-26T13:39:27.098Z,8.35
2022-08-26T13:41:54.890Z,5.68
2022-08-26T13:44:22.370Z,4.40
2022-08-26T13:46:49.823Z,6.15
2022-08-26T13:49:17.226Z,4.13
2022-08-26T13:55:16.141Z,7.30
2022-08-26T13:57:43.751Z,10.30
2022-08-26T14:00:12.058Z,5.95
2022-08-26T14:02:39.970Z,6.70
2022-08-26T14:05:08.099Z,4.53
2022-08-26T14:07:36.087Z,5.55
2022-08-26T14:10:04.042Z,7.05
2022-08-26T14:12:31.904Z,4.88
2022-08-26T14:15:00.378Z,7.45
2022-08-26T14:17:28.142Z,4.43
2022-08-26T14:19:58.826Z,4.63
2022-08-26T14:22:26.300Z,7.07
2022-08-26T14:24:54.438Z,4.72
2022-08-26T14:27:21.866Z,6.65
2022-08-26T14:29:49.264Z,6.90
2022-08-26T14:32:24.967Z,4.90
2022-08-26T14:34:52.856Z,5.03
2022-08-26T14:37:21.187Z,5.03
2022-08-26T14:39:48.726Z,6.15
2022-08-26T14:42:22.693Z,7.80
2022-08-26T14:44:55.215Z,6.72
2022-08-26T14:47:22.780Z,7.75
2022-08-26T14:49:50.441Z,6.15
2022-08-26T14:52:18.267Z,4.82
2022-08-26T14:54:45.711Z,5.88
2022-08-26T14:57:15.110Z,4.18
2022-08-26T14:59:50.009Z,4.63
2022-08-26T15:02:33.566Z,4.75
2022-08-26T15:05:05.377Z,6.72
2022-08-26T15:07:33.092Z,8.48
2022-08-26T15:10:00.721Z,5.43
2022-08-26T15:12:28.201Z,4.93
2022-08-26T15:14:55.635Z,7.53
2022-08-26T15:17:23.654Z,12.65
2022-08-26T15:19:52.175Z,5.68
2022-08-26T15:22:19.796Z,5.57
2022-08-26T15:24:47.651Z,5.35
2022-08-26T15:27:20.131Z,7.60
2022-08-26T15:29:47.785Z,4.43
2022-08-26T15:32:15.383Z,5.75
2022-08-26T15:34:42.876Z,6.90
2022-08-26T15:37:10.541Z,9.40
2022-08-26T15:39:38.360Z,6.38
2022-08-26T15:42:06.044Z,7.78
2022-08-26T15:44:34.281Z,4.80
2022-08-26T15:47:02.002Z,4.65
2022-08-26T15:49:30.759Z,5.50
2022-08-26T15:51:58.411Z,6.82
2022-08-26T15:54:26.264Z,5.45
2022-08-26T15:56:54.355Z,8.80
2022-08-26T15:59:22.675Z,4.10
2022-08-26T16:01:50.916Z,6.65
2022-08-26T16:04:18.861Z,5.43
2022-08-26T16:06:50.280Z,4.78
2022-08-26T16:09:19.855Z,5.88
2022-08-26T16:11:47.298Z,4.85
2022-08-26T16:14:15.083Z,4.70
2022-08-26T16:16:42.695Z,7.15
2022-08-26T16:19:11.542Z,7.30
2022-08-26T16:21:40.752Z,6.22
2022-08-26T16:24:09.194Z,15.88
2022-08-26T16:26:38.483Z,7.75
2022-08-26T16:29:09.306Z,9.48
2022-08-26T16:31:38.218Z,6.45
2022-08-26T16:34:07.546Z,5.07
2022-08-26T16:36:37.332Z,5.22
2022-08-26T16:39:06.632Z,8.63
2022-08-26T16:41:35.229Z,7.80
2022-08-26T16:44:03.766Z,7.88
2022-08-26T16:46:31.838Z,7.70
2022-08-26T16:49:00.116Z,8.23
2022-08-26T16:51:28.483Z,7.25
2022-08-26T16:53:57.585Z,4.13
2022-08-26T16:56:33.461Z,4.68
2022-08-26T16:59:05.898Z,9.77
2022-08-26T17:01:33.665Z,4.93
2022-08-26T17:04:01.881Z,8.35
2022-08-26T17:06:29.846Z,6.40
2022-08-26T17:08:57.929Z,6.10
2022-08-26T17:11:25.541Z,5.85
2022-08-26T17:13:53.198Z,7.88
2022-08-26T17:16:26.233Z,3.58
2022-08-26T17:18:56.728Z,5.80
2022-08-26T17:21:25.834Z,5.30
2022-08-26T17:23:54.122Z,8.80
2022-08-26T17:26:21.719Z,9.23
2022-08-26T17:28:50.238Z,9.20
2022-08-26T17:31:18.261Z,8.38
2022-08-26T17:33:53.389Z,7.28
2022-08-26T17:36:27.534Z,6.03
2022-08-26T17:38:57.378Z,7.40
2022-08-26T17:41:26.004Z,4.53
2022-08-26T17:43:53.662Z,7.63
2022-08-26T17:46:21.959Z,9.20
2022-08-26T17:48:49.710Z,6.05
2022-08-26T17:51:19.305Z,5.53
2022-08-26T17:53:48.054Z,5.90
2022-08-26T17:56:18.632Z,8.55
2022-08-26T17:58:48.083Z,16.77
2022-08-26T18:01:21.068Z,20.02
2022-08-26T18:03:49.419Z,9.70
2022-08-26T18:06:17.215Z,10.88
2022-08-26T18:08:45.187Z,20.23
2022-08-26T18:11:16.307Z,24.90
2022-08-26T18:13:45.835Z,17.67
2022-08-26T18:16:17.575Z,13.20
2022-08-26T18:18:46.665Z,7.97
2022-08-26T18:21:18.050Z,11.13
2022-08-26T18:23:46.981Z,10.10
2022-08-26T18:26:44.515Z,11.45
2022-08-26T18:29:11.999Z,14.15
2022-08-26T18:31:39.523Z,10.82
2022-08-26T18:34:08.187Z,11.68
2022-08-26T18:36:37.488Z,9.05
2022-08-26T18:39:07.451Z,8.93
2022-08-26T18:41:55.390Z,6.60
2022-08-26T18:44:25.200Z,7.45
2022-08-26T18:46:54.740Z,7.20
2022-08-26T18:49:23.882Z,10.43
2022-08-26T18:51:52.628Z,6.13
2022-08-26T18:56:57.873Z,10.70
2022-08-26T18:59:26.761Z,10.50
2022-08-26T19:01:58.283Z,13.88
2022-08-26T19:04:26.839Z,13.15
2022-08-26T19:06:56.044Z,12.93
2022-08-26T19:09:26.430Z,11.73
2022-08-26T19:14:25.046Z,10.00
2022-08-26T19:16:53.795Z,14.18
2022-08-26T19:19:26.051Z,7.88
2022-08-26T19:21:54.277Z,10.85
2022-08-26T19:24:26.035Z,8.75
2022-08-26T19:26:59.152Z,8.15
2022-08-26T19:29:32.649Z,7.75
2022-08-26T19:32:01.915Z,7.78
2022-08-26T19:34:29.992Z,9.88
2022-08-26T19:36:59.269Z,16.80
2022-08-26T19:39:27.047Z,13.68
2022-08-26T19:41:54.764Z,13.98
2022-08-26T19:44:42.558Z,10.63
2022-08-26T19:47:13.648Z,6.85
2022-08-26T19:49:44.477Z,11.23
2022-08-26T19:52:12.779Z,9.05
2022-08-26T19:54:41.259Z,8.18
2022-08-26T19:57:09.488Z,7.70
2022-08-26T19:59:37.291Z,7.97
2022-08-26T20:02:10.044Z,8.23
2022-08-26T20:04:39.044Z,8.85
2022-08-26T20:07:07.078Z,7.28
2022-08-26T20:09:37.468Z,8.50
2022-08-26T20:12:09.251Z,7.78
2022-08-26T20:14:38.125Z,9.80
2022-08-26T20:17:07.361Z,6.80
2022-08-26T20:19:53.956Z,14.93
2022-08-26T20:22:21.981Z,26.25
2022-08-26T20:24:50.235Z,23.58
2022-08-26T20:27:18.208Z,21.58
2022-08-26T20:29:45.979Z,16.83
2022-08-26T20:32:13.808Z,11.23
2022-08-26T20:34:41.816Z,8.95
2022-08-26T20:37:12.317Z,11.50
2022-08-26T20:39:40.212Z,9.43
2022-08-26T20:42:20.124Z,9.00
2022-08-26T20:44:54.231Z,9.30
2022-08-26T20:47:23.147Z,7.93
2022-08-26T20:49:52.303Z,10.25
2022-08-26T20:52:21.747Z,13.60
2022-08-26T20:54:49.342Z,8.20
2022-08-26T20:57:17.174Z,7.82
2022-08-26T20:59:45.285Z,8.50
2022-08-26T21:02:12.879Z,9.50
2022-08-26T21:04:40.461Z,7.50
2022-08-26T21:07:08.890Z,6.78
2022-08-26T21:09:36.578Z,11.50
2022-08-26T21:12:05.960Z,14.02
2022-08-26T21:14:33.575Z,10.63
2022-08-26T21:17:08.902Z,9.50
2022-08-26T21:19:37.509Z,11.13
2022-08-26T21:22:05.718Z,9.48
2022-08-26T21:24:33.575Z,6.75
2022-08-26T21:27:01.196Z,7.20
2022-08-26T21:29:29.079Z,8.57
2022-08-26T21:31:57.683Z,7.07
2022-08-26T21:34:25.266Z,11.38
2022-08-26T21:36:52.891Z,11.82
2022-08-26T21:39:21.069Z,8.80
2022-08-26T21:41:48.843Z,7.38
2022-08-26T21:44:17.738Z,8.45
2022-08-26T21:46:46.158Z,8.25
2022-08-26T21:49:15.932Z,6.75
2022-08-26T21:51:47.339Z,11.00
2022-08-26T21:54:15.179Z,9.32
2022-08-26T21:56:46.578Z,7.30
2022-08-26T21:59:17.342Z,6.57
2022-08-26T22:01:44.909Z,8.52
2022-08-26T22:04:12.647Z,6.53
2022-08-26T22:06:46.135Z,6.07
2022-08-26T22:09:16.240Z,8.00
2022-08-26T22:11:44.082Z,6.40
2022-08-26T22:14:12.178Z,7.00
2022-08-26T22:16:39.928Z,8.10
2022-08-26T22:19:07.739Z,6.70
2022-08-26T22:21:39.774Z,6.88
2022-08-26T22:24:08.703Z,6.57
2022-08-26T22:26:36.212Z,8.32
2022-08-26T22:29:04.818Z,10.05
2022-08-26T22:31:37.978Z,7.32
2022-08-26T22:34:08.996Z,10.82
2022-08-26T22:36:42.684Z,7.95
2022-08-26T22:39:18.111Z,7.78
2022-08-26T22:41:48.611Z,9.40
2022-08-26T22:44:17.559Z,10.65
2022-08-26T22:46:46.083Z,7.82
2022-08-26T22:49:18.019Z,7.90
2022-08-26T22:51:46.635Z,12.32
2022-08-26T22:54:16.475Z,9.27
2022-08-26T22:56:45.591Z,8.48
2022-08-26T22:59:13.689Z,9.65
2022-08-26T23:01:43.084Z,7.50
2022-08-26T23:04:11.138Z,8.05
2022-08-26T23:06:43.181Z,8.20
2022-08-26T23:09:16.890Z,9.18
2022-08-26T23:11:46.281Z,8.30
2022-08-26T23:14:14.054Z,11.93
2022-08-26T23:16:42.212Z,10.05
2022-08-26T23:19:11.969Z,8.00
2022-08-26T23:21:40.034Z,7.93
2022-08-26T23:24:08.012Z,10.80
2022-08-26T23:26:36.923Z,7.60
2022-08-26T23:29:07.423Z,8.90
2022-08-26T23:31:37.269Z,8.23
2022-08-26T23:34:23.311Z,8.07
2022-08-26T23:36:52.523Z,8.73
2022-08-26T23:39:21.460Z,12.38
2022-08-26T23:41:49.080Z,12.32
2022-08-26T23:44:16.669Z,8.85
2022-08-26T23:46:44.268Z,8.10
2022-08-26T23:49:11.985Z,12.60
2022-08-26T23:51:57.904Z,8.07
2022-08-26T23:54:25.672Z,9.85
2022-08-26T23:56:53.303Z,10.00
2022-08-26T23:59:20.875Z,10.40
